Time;durP1;ratioP1;P1;durP2;ratioP2;P2;SDS_P1;SDS_P2;PMS_P1;PMS_P2;Temp;Humidity;BMP_temperature;BMP_pressure;BME280_temperature;BME280_humidity;BME280_pressure;Samples;Min_cycle;Max_cycle;Signal;HPM_P1;HPM_P2
2022/08/26 00:02:00;;;;;;;38.63;34.65;;;25.60;56.70;;;;;;4934626;29;20444;-55
2022/08/26 00:04:30;;;;;;;36.85;32.85;;;25.50;56.70;;;;;;4934800;29;20043;-53
2022/08/26 00:06:57;;;;;;;37.17;33.25;;;25.50;57.20;;;;;;4934071;29;20052;-54
2022/08/26 00:09:24;;;;;;;35.22;31.70;;;25.50;56.90;;;;;;4935240;29;20079;-51
2022/08/26 00:11:54;;;;;;;38.30;32.22;;;25.50;57.10;;;;;;4935155;29;20047;-56
2022/08/26 00:14:24;;;;;;;34.28;30.63;;;25.40;57.20;;;;;;4934754;29;20122;-56
2022/08/26 00:16:57;;;;;;;35.03;30.25;;;25.50;57.20;;;;;;4933584;29;20110;-57
2022/08/26 00:19:24;;;;;;;32.85;29.52;;;25.40;57.30;;;;;;4935422;29;20444;-56
2022/08/26 00:21:53;;;;;;;33.35;29.75;;;25.30;57.40;;;;;;4934771;29;20044;-54
2022/08/26 00:24:23;;;;;;;34.42;30.77;;;25.30;57.60;;;;;;4935273;29;20115;-51
2022/08/26 00:26:54;;;;;;;31.17;27.85;;;25.30;57.80;;;;;;4934055;29;20071;-56
2022/08/26 00:29:26;;;;;;;32.17;28.83;;;25.30;58.20;;;;;;4930597;29;20055;-54
2022/08/26 00:32:01;;;;;;;30.77;27.73;;;25.20;58.00;;;;;;4933211;29;20056;-55
2022/08/26 00:34:32;;;;;;;29.48;25.83;;;25.20;58.00;;;;;;4932523;29;20103;-55
2022/08/26 00:36:59;;;;;;;29.63;26.52;;;25.20;58.30;;;;;;4933770;29;20074;-56
2022/08/26 00:39:26;;;;;;;30.85;24.42;;;25.10;58.30;;;;;;4934697;29;20408;-57
2022/08/26 00:41:53;;;;;;;29.33;25.63;;;25.20;58.50;;;;;;4934375;29;20051;-52
2022/08/26 00:44:22;;;;;;;27.77;24.80;;;25.10;58.60;;;;;;4934141;29;20140;-54
2022/08/26 00:46:53;;;;;;;28.92;26.02;;;25.10;58.60;;;;;;4932275;29;20102;-50
2022/08/26 00:49:39;;;;;;;28.02;25.05;;;25.10;59.00;;;;;;4927051;29;20055;-59
2022/08/26 00:52:15;;;;;;;27.10;24.25;;;25.10;59.50;;;;;;4933886;29;20059;-53
2022/08/26 00:55:08;;;;;;;30.15;24.98;;;25.10;59.20;;;;;;4932121;29;20044;-55
2022/08/26 00:57:36;;;;;;;28.67;24.80;;;25.10;59.40;;;;;;4932855;29;20069;-54
2022/08/26 01:00:10;;;;;;;25.70;22.90;;;25.10;59.00;;;;;;4934488;29;20063;-56
2022/08/26 01:02:40;;;;;;;25.70;23.08;;;25.10;59.30;;;;;;4933825;29;20044;-55
2022/08/26 01:05:13;;;;;;;26.25;22.15;;;25.10;59.10;;;;;;4933644;29;20048;-60
2022/08/26 01:07:40;;;;;;;25.27;21.80;;;25.10;59.20;;;;;;4949355;28;20055;-55
2022/08/26 01:10:11;;;;;;;25.83;22.83;;;25.10;59.30;;;;;;4933330;29;20044;-52
2022/08/26 01:13:05;;;;;;;24.98;21.63;;;25.10;59.60;;;;;;4933250;29;20052;-55
2022/08/26 01:15:38;;;;;;;23.10;20.70;;;25.10;60.20;;;;;;4933294;29;20051;-56
2022/08/26 01:18:12;;;;;;;24.50;20.17;;;25.10;59.50;;;;;;4932041;29;20445;-55
2022/08/26 01:21:00;;;;;;;22.40;20.05;;;25.10;59.40;;;;;;4918527;29;20066;-54
2022/08/26 01:23:32;;;;;;;24.92;20.95;;;25.10;59.80;;;;;;4933940;29;20095;-56
2022/08/26 01:26:01;;;;;;;;;;;25.10;59.80;;;;;;4947792;29;20107;-54
2022/08/26 01:28:31;;;;;;;22.02;19.15;;;25.10;58.20;;;;;;4933540;29;20400;-52
2022/08/26 01:31:06;;;;;;;23.95;20.15;;;25.10;59.10;;;;;;4930285;29;20051;-53
2022/08/26 01:33:47;;;;;;;22.50;20.15;;;25.00;59.30;;;;;;4933290;29;20054;-51
2022/08/26 01:36:15;;;;;;;19.98;17.88;;;25.00;60.00;;;;;;4932703;29;20134;-55
2022/08/26 01:38:43;;;;;;;20.50;17.60;;;25.00;59.40;;;;;;4933566;29;20052;-56
2022/08/26 01:41:15;;;;;;;19.40;17.33;;;25.00;59.80;;;;;;4932897;29;20091;-51
2022/08/26 01:43:54;;;;;;;25.02;17.98;;;25.00;59.80;;;;;;4932183;29;20048;-52
2022/08/26 01:46:26;;;;;;;19.07;16.50;;;24.90;59.80;;;;;;4932501;29;20043;-52
2022/08/26 01:48:55;;;;;;;19.40;17.42;;;24.90;59.80;;;;;;4932658;29;20303;-54
2022/08/26 01:51:25;;;;;;;20.55;17.70;;;24.90;60.00;;;;;;4930103;29;20111;-53
2022/08/26 01:53:52;;;;;;;17.95;16.05;;;24.90;60.20;;;;;;4933179;29;20040;-52
2022/08/26 01:56:25;;;;;;;18.08;15.65;;;24.80;60.00;;;;;;4913913;29;20048;-55
2022/08/26 01:59:00;;;;;;;18.90;15.40;;;24.80;60.10;;;;;;4929411;29;20114;-56
2022/08/26 02:01:28;;;;;;;21.10;15.70;;;24.80;60.30;;;;;;4932638;29;20497;-51
2022/08/26 02:04:14;;;;;;;18.27;14.35;;;24.80;60.30;;;;;;4933488;29;20036;-52
2022/08/26 02:06:44;;;;;;;17.25;14.60;;;24.80;61.10;;;;;;4932145;29;20074;-54
2022/08/26 02:09:11;;;;;;;15.15;13.48;;;24.80;60.40;;;;;;4932479;29;20036;-50
2022/08/26 02:11:40;;;;;;;16.38;13.95;;;24.70;60.40;;;;;;4932840;29;20063;-52
2022/08/26 02:14:15;;;;;;;17.27;14.32;;;24.80;60.60;;;;;;4932921;29;20047;-50
2022/08/26 02:16:45;;;;;;;15.82;13.13;;;24.70;60.60;;;;;;4931193;29;20397;-53
2022/08/26 02:19:25;;;;;;;14.43;12.00;;;24.70;60.60;;;;;;4932355;29;20044;-56
2022/08/26 02:21:52;;;;;;;14.18;12.30;;;24.70;60.80;;;;;;4932877;29;20074;-53
2022/08/26 02:24:26;;;;;;;13.43;12.00;;;24.70;60.50;;;;;;4933470;29;20048;-50
2022/08/26 02:26:56;;;;;;;14.00;11.80;;;24.70;60.80;;;;;;4932029;29;20036;-55
2022/08/26 02:29:33;;;;;;;15.00;11.63;;;24.70;60.60;;;;;;4932666;29;20528;-52
2022/08/26 02:32:02;;;;;;;12.55;11.30;;;24.70;60.90;;;;;;4932453;29;20036;-54
2022/08/26 02:34:31;;;;;;;13.73;11.45;;;24.70;60.50;;;;;;4933425;29;20058;-52
2022/08/26 02:37:07;;;;;;;12.32;11.05;;;24.70;60.60;;;;;;4931783;29;20075;-54
2022/08/26 02:39:38;;;;;;;12.73;10.43;;;24.70;60.90;;;;;;4931962;29;20501;-52
2022/08/26 02:42:07;;;;;;;11.32;9.65;;;24.70;60.60;;;;;;4932623;29;20067;-54
2022/08/26 02:44:37;;;;;;;14.52;10.57;;;24.70;60.60;;;;;;4932988;29;20520;-53
2022/08/26 02:47:11;;;;;;;12.07;9.80;;;24.70;60.50;;;;;;4930894;29;20449;-52
2022/08/26 02:49:40;;;;;;;12.63;10.38;;;24.70;60.50;;;;;;4932377;29;20043;-53
2022/08/26 02:52:11;;;;;;;11.35;9.70;;;24.70;60.50;;;;;;4934375;29;20048;-53
2022/08/26 02:54:38;;;;;;;10.02;9.02;;;24.70;60.70;;;;;;4936332;29;20528;-55
2022/08/26 02:57:05;;;;;;;9.80;8.70;;;24.70;60.50;;;;;;4935987;29;20050;-52
2022/08/26 02:59:34;;;;;;;10.20;8.75;;;24.70;60.60;;;;;;4935911;29;20047;-50
2022/08/26 03:02:04;;;;;;;9.93;8.65;;;24.70;60.60;;;;;;4936103;29;20051;-54
2022/08/26 03:04:32;;;;;;;8.00;7.25;;;24.70;60.50;;;;;;4934738;29;20398;-55
2022/08/26 03:07:01;;;;;;;8.65;7.72;;;24.70;60.60;;;;;;4935156;29;20075;-51
2022/08/26 03:09:30;;;;;;;8.63;7.78;;;24.70;60.50;;;;;;4936323;29;20044;-54
2022/08/26 03:12:00;;;;;;;8.70;7.47;;;24.70;60.60;;;;;;4936285;29;20059;-56
2022/08/26 03:14:29;;;;;;;9.23;7.13;;;24.70;60.60;;;;;;4935113;29;20520;-52
2022/08/26 03:16:56;;;;;;;11.75;7.50;;;24.70;60.70;;;;;;4935341;29;20560;-54
2022/08/26 03:19:26;;;;;;;12.70;7.32;;;24.70;60.50;;;;;;4936344;29;20055;-56
2022/08/26 03:22:01;;;;;;;8.30;6.85;;;24.80;60.80;;;;;;4935246;29;20050;-50
2022/08/26 03:24:28;;;;;;;8.52;6.18;;;24.80;60.50;;;;;;4933946;29;20044;-51
2022/08/26 03:26:54;;;;;;;8.30;5.85;;;24.70;60.40;;;;;;4935682;29;20072;-52
2022/08/26 03:32:09;;;;;;;7.47;6.30;;;24.70;60.40;;;;;;4935037;29;20473;-54
2022/08/26 03:34:36;;;;;;;8.50;5.88;;;24.70;60.30;;;;;;4935942;29;20127;-51
2022/08/26 03:37:05;;;;;;;6.47;5.88;;;24.80;60.30;;;;;;4935473;29;20067;-52
2022/08/26 03:39:38;;;;;;;6.75;5.47;;;24.70;60.30;;;;;;4935157;29;20051;-56
2022/08/26 03:42:10;;;;;;;7.53;5.40;;;24.70;60.50;;;;;;4933430;29;20036;-52
2022/08/26 03:44:36;;;;;;;5.53;4.82;;;24.70;60.40;;;;;;4935160;29;20103;-51
2022/08/26 03:47:07;;;;;;;7.70;5.25;;;24.70;60.20;;;;;;4935073;29;20040;-53
2022/08/26 03:49:34;;;;;;;9.93;5.55;;;24.70;60.10;;;;;;4935541;29;20515;-56
2022/08/26 03:52:06;;;;;;;6.75;5.15;;;24.70;60.30;;;;;;4934680;29;20106;-54
2022/08/26 03:54:36;;;;;;;5.38;4.88;;;24.60;60.30;;;;;;4935519;29;20055;-51
2022/08/26 03:57:08;;;;;;;5.95;4.55;;;24.60;60.30;;;;;;4935237;29;20087;-50
2022/08/26 03:59:35;;;;;;;6.55;4.50;;;24.60;60.30;;;;;;4935460;29;20044;-50
2022/08/26 04:02:09;;;;;;;6.72;4.85;;;24.60;61.10;;;;;;4934020;29;20412;-50
2022/08/26 04:04:37;;;;;;;6.50;4.68;;;24.60;60.50;;;;;;4935411;29;20035;-52
2022/08/26 04:07:04;;;;;;;5.65;4.80;;;24.60;60.40;;;;;;4934905;29;20074;-53
2022/08/26 04:09:31;;;;;;;5.88;4.22;;;24.60;60.40;;;;;;4935640;29;20698;-51
2022/08/26 04:12:02;;;;;;;8.73;4.47;;;24.60;60.40;;;;;;4934345;29;20040;-50
2022/08/26 04:14:31;;;;;;;6.53;4.82;;;24.60;60.50;;;;;;4934351;29;20512;-51
2022/08/26 04:16:58;;;;;;;7.25;4.78;;;24.60;60.50;;;;;;4930918;29;20059;-51
2022/08/26 04:19:30;;;;;;;8.02;5.18;;;24.60;60.60;;;;;;4918348;29;20039;-53
2022/08/26 04:21:57;;;;;;;4.95;4.55;;;24.60;60.50;;;;;;4931725;29;20493;-52
2022/08/26 04:24:33;;;;;;;5.93;4.28;;;24.60;60.60;;;;;;4934846;29;20457;-50
2022/08/26 04:27:02;;;;;;;7.25;4.63;;;24.60;60.80;;;;;;4935104;29;20189;-51
2022/08/26 04:29:33;;;;;;;7.53;4.15;;;24.60;60.70;;;;;;4934646;29;20055;-50
2022/08/26 04:32:01;;;;;;;11.07;4.75;;;24.50;60.80;;;;;;4934859;29;20138;-50
2022/08/26 04:34:28;;;;;;;6.38;4.00;;;24.50;60.70;;;;;;4935719;29;20516;-54
2022/08/26 04:36:56;;;;;;;7.40;5.35;;;24.50;60.80;;;;;;4934359;29;20051;-53
2022/08/26 04:39:26;;;;;;;7.00;4.47;;;24.50;60.90;;;;;;4934589;29;20062;-53
2022/08/26 04:41:54;;;;;;;6.00;4.57;;;24.50;60.80;;;;;;4934682;29;20075;-53
2022/08/26 04:44:24;;;;;;;7.10;4.75;;;24.50;60.90;;;;;;4927328;29;20047;-53
2022/08/26 04:46:56;;;;;;;;;;;24.50;61.00;;;;;;4934967;29;20553;-54
2022/08/26 04:49:26;;;;;;;5.03;4.53;;;24.50;60.10;;;;;;4934596;29;20017;-54
2022/08/26 04:52:03;;;;;;;6.93;4.15;;;24.60;60.80;;;;;;4934563;29;20047;-50
2022/08/26 04:54:30;;;;;;;5.72;4.45;;;24.50;60.70;;;;;;4928248;29;20051;-50
2022/08/26 04:56:58;;;;;;;4.25;3.85;;;24.50;60.80;;;;;;4934015;29;20047;-55
2022/08/26 04:59:24;;;;;;;5.13;3.78;;;24.50;60.90;;;;;;4929997;29;20051;-53
2022/08/26 05:01:55;;;;;;;7.30;4.63;;;24.50;61.10;;;;;;4930468;29;20055;-49
2022/08/26 05:04:22;;;;;;;7.85;4.00;;;24.50;61.20;;;;;;4933071;29;20047;-54
2022/08/26 05:06:51;;;;;;;8.00;4.60;;;24.50;61.20;;;;;;4933227;29;20035;-51
2022/08/26 05:09:21;;;;;;;6.43;3.85;;;24.40;61.20;;;;;;4932224;29;20104;-52
2022/08/26 05:11:48;;;;;;;5.35;3.90;;;24.40;61.30;;;;;;4933450;29;20043;-53
2022/08/26 05:14:19;;;;;;;9.45;4.30;;;24.40;61.50;;;;;;4933734;29;20100;-50
2022/08/26 05:16:48;;;;;;;4.57;3.35;;;24.40;61.60;;;;;;4932515;29;20091;-53
2022/08/26 05:19:15;;;;;;;6.72;3.35;;;24.40;61.50;;;;;;4932696;29;20052;-52
2022/08/26 05:21:46;;;;;;;5.78;3.45;;;24.40;61.60;;;;;;4933092;29;20500;-51
2022/08/26 05:24:14;;;;;;;7.72;3.60;;;24.40;62.20;;;;;;4930182;29;20382;-51
2022/08/26 05:26:41;;;;;;;5.47;3.10;;;24.40;61.60;;;;;;4933138;29;20036;-51
2022/08/26 05:29:10;;;;;;;4.65;2.60;;;24.50;61.60;;;;;;4932438;29;20067;-50
2022/08/26 05:31:37;;;;;;;4.32;2.88;;;24.40;61.60;;;;;;4932991;29;20075;-53
2022/08/26 05:34:04;;;;;;;4.03;2.55;;;24.40;61.60;;;;;;4933526;29;20460;-54
2022/08/26 05:36:33;;;;;;;5.63;2.85;;;24.40;61.70;;;;;;4947263;29;20082;-50
2022/08/26 05:39:05;;;;;;;;;;;24.40;61.70;;;;;;4932641;29;20087;-54
2022/08/26 05:41:35;;;;;;;3.80;2.60;;;24.50;61.00;;;;;;4933737;29;20455;-54
2022/08/26 05:44:07;;;;;;;10.63;3.75;;;24.50;61.30;;;;;;4932040;29;20054;-54
2022/08/26 05:46:35;;;;;;;8.00;3.35;;;24.50;61.50;;;;;;4932085;29;20040;-54
2022/08/26 05:49:04;;;;;;;7.38;2.72;;;24.50;61.50;;;;;;4931491;29;20147;-54
2022/08/26 05:51:32;;;;;;;4.88;2.45;;;24.50;61.60;;;;;;4932871;29;20102;-54
2022/08/26 05:54:01;;;;;;;3.97;2.25;;;24.50;61.60;;;;;;4931538;29;20072;-52
2022/08/26 05:56:29;;;;;;;8.15;3.90;;;24.50;61.60;;;;;;4930461;29;20128;-49
2022/08/26 05:58:57;;;;;;;4.10;2.30;;;24.50;61.60;;;;;;4932227;29;20097;-54
2022/08/26 06:01:26;;;;;;;5.50;3.28;;;24.50;61.70;;;;;;4932753;29;20035;-50
2022/08/26 06:03:57;;;;;;;4.68;2.58;;;24.50;61.70;;;;;;4932873;29;20126;-51
2022/08/26 06:06:30;;;;;;;5.78;3.08;;;24.50;61.70;;;;;;4932235;29;20043;-51
2022/08/26 06:08:58;;;;;;;5.03;2.60;;;24.50;62.40;;;;;;4933075;29;20071;-53
2022/08/26 06:11:30;;;;;;;4.32;1.92;;;24.50;61.60;;;;;;4931630;29;20148;-53
2022/08/26 06:14:00;;;;;;;8.13;2.00;;;24.50;61.80;;;;;;4930086;29;20040;-50
2022/08/26 06:16:32;;;;;;;3.65;2.00;;;24.50;61.70;;;;;;4929654;29;20343;-50
2022/08/26 06:19:01;;;;;;;4.78;2.38;;;24.50;61.60;;;;;;4933095;29;20051;-54
2022/08/26 06:21:33;;;;;;;4.20;2.47;;;24.50;61.70;;;;;;4932035;29;20040;-49
2022/08/26 06:27:00;;;;;;;5.47;2.13;;;24.50;61.60;;;;;;4930358;29;20036;-54
2022/08/26 06:29:28;;;;;;;2.95;1.92;;;24.60;61.70;;;;;;4930898;29;20054;-50
2022/08/26 06:31:56;;;;;;;5.60;1.90;;;24.60;61.60;;;;;;4930816;29;20114;-50
2022/08/26 06:34:27;;;;;;;3.30;1.88;;;24.50;61.50;;;;;;4932815;29;20063;-54
2022/08/26 06:36:58;;;;;;;5.00;1.92;;;24.60;61.60;;;;;;4932420;29;20139;-54
2022/08/26 06:39:25;;;;;;;5.38;2.05;;;24.60;61.60;;;;;;4932142;29;20047;-52
2022/08/26 06:41:55;;;;;;;3.83;1.85;;;24.60;61.50;;;;;;4931911;29;20048;-53
2022/08/26 06:44:23;;;;;;;2.90;1.40;;;24.60;61.70;;;;;;4932926;29;20036;-50
2022/08/26 06:46:50;;;;;;;5.65;2.08;;;24.60;61.50;;;;;;4931464;29;20047;-52
2022/08/26 06:49:19;;;;;;;6.03;2.40;;;24.60;61.50;;;;;;4932013;29;20130;-54
2022/08/26 06:51:56;;;;;;;5.38;2.30;;;24.70;61.60;;;;;;4931305;29;20044;-54
2022/08/26 06:54:25;;;;;;;3.22;1.63;;;24.60;61.60;;;;;;4932104;29;20577;-54
2022/08/26 06:56:52;;;;;;;2.95;1.80;;;24.60;61.60;;;;;;4929657;29;20405;-55
2022/08/26 06:59:20;;;;;;;3.10;1.83;;;24.60;61.60;;;;;;4931226;29;20050;-54
2022/08/26 07:01:47;;;;;;;6.53;2.08;;;24.70;61.70;;;;;;4932211;29;20039;-54
2022/08/26 07:04:16;;;;;;;6.03;2.50;;;24.70;61.70;;;;;;4932766;29;20067;-54
2022/08/26 07:06:49;;;;;;;2.92;2.47;;;24.70;61.70;;;;;;4932082;29;20102;-51
2022/08/26 07:09:21;;;;;;;2.80;1.73;;;24.70;61.60;;;;;;4930467;29;20501;-52
2022/08/26 07:11:48;;;;;;;2.70;1.98;;;24.70;61.70;;;;;;4932083;29;20505;-55
2022/08/26 07:14:16;;;;;;;9.90;2.20;;;24.80;61.50;;;;;;4929734;29;20428;-52
2022/08/26 07:16:48;;;;;;;2.78;2.17;;;24.80;61.50;;;;;;4934116;28;20048;-51
2022/08/26 07:19:17;;;;;;;5.80;2.67;;;24.80;61.30;;;;;;4930237;29;20066;-54
2022/08/26 07:21:56;;;;;;;5.25;2.05;;;24.90;61.40;;;;;;4930467;29;20078;-52
2022/08/26 07:24:23;;;;;;;4.07;2.45;;;24.90;61.20;;;;;;4932258;29;20077;-52
2022/08/26 07:26:58;;;;;;;6.88;2.10;;;24.90;61.10;;;;;;4931394;29;20044;-53
2022/08/26 07:29:25;;;;;;;3.60;2.22;;;24.90;61.30;;;;;;4932830;29;20145;-54
2022/08/26 07:31:53;;;;;;;3.17;1.95;;;24.90;61.10;;;;;;4932238;29;20056;-54
2022/08/26 07:34:24;;;;;;;4.50;2.53;;;25.00;61.10;;;;;;4930904;29;20699;-52
2022/08/26 07:36:52;;;;;;;6.38;2.00;;;25.00;61.10;;;;;;4931439;29;20055;-54
2022/08/26 07:39:21;;;;;;;6.13;2.47;;;25.00;61.20;;;;;;4935570;29;20059;-51
2022/08/26 07:41:48;;;;;;;3.72;1.77;;;25.10;61.00;;;;;;4934694;29;20043;-51
2022/08/26 07:44:15;;;;;;;4.15;2.13;;;25.20;60.80;;;;;;4935228;29;20079;-52
2022/08/26 07:46:42;;;;;;;5.50;1.98;;;25.20;60.60;;;;;;4933882;29;20054;-54
2022/08/26 07:49:10;;;;;;;7.07;2.20;;;25.30;60.80;;;;;;4935527;29;20611;-55
2022/08/26 07:51:38;;;;;;;4.70;1.85;;;25.30;60.50;;;;;;4935314;29;20563;-52
2022/08/26 07:54:05;;;;;;;4.07;1.80;;;25.30;60.40;;;;;;4934632;29;20040;-54
2022/08/26 07:56:32;;;;;;;6.88;2.30;;;25.30;60.30;;;;;;4934269;29;20040;-55
2022/08/26 07:58:59;;;;;;;4.72;2.10;;;25.40;60.10;;;;;;4935639;29;20039;-52
2022/08/26 08:01:30;;;;;;;5.03;2.03;;;25.40;60.20;;;;;;4932294;29;20094;-54
2022/08/26 08:03:59;;;;;;;7.63;1.80;;;25.50;60.20;;;;;;4935095;29;20050;-54
2022/08/26 08:06:28;;;;;;;2.22;1.70;;;25.60;60.20;;;;;;4934072;29;20050;-51
2022/08/26 08:08:55;;;;;;;4.47;1.95;;;25.70;60.00;;;;;;4935245;29;20072;-52
2022/08/26 08:11:22;;;;;;;3.75;2.10;;;25.70;59.60;;;;;;4934863;29;20103;-52
2022/08/26 08:13:50;;;;;;;3.13;1.48;;;25.80;59.50;;;;;;4935280;29;20043;-52
2022/08/26 08:16:23;;;;;;;6.93;2.45;;;25.80;59.20;;;;;;4939711;29;20480;-50
2022/08/26 08:18:56;;;;;;;4.30;2.13;;;25.80;58.90;;;;;;4935459;29;20040;-54
2022/08/26 08:21:25;;;;;;;3.00;2.60;;;25.80;58.80;;;;;;4932426;29;20071;-50
2022/08/26 08:23:54;;;;;;;4.50;2.00;;;25.80;58.60;;;;;;4934727;29;20040;-54
2022/08/26 08:26:23;;;;;;;5.63;1.73;;;25.80;58.70;;;;;;4932449;29;20050;-51
2022/08/26 08:28:54;;;;;;;7.30;1.77;;;25.80;58.90;;;;;;4935164;29;20040;-51
2022/08/26 08:31:22;;;;;;;5.90;2.08;;;25.80;58.90;;;;;;4934712;29;20056;-51
2022/08/26 08:34:09;;;;;;;4.25;1.30;;;25.70;58.80;;;;;;4932572;29;20127;-51
2022/08/26 08:36:36;;;;;;;5.03;1.70;;;25.80;58.90;;;;;;4934138;29;20047;-50
2022/08/26 08:39:03;;;;;;;3.85;1.90;;;25.80;58.60;;;;;;4932578;29;20102;-53
2022/08/26 08:41:40;;;;;;;4.35;1.77;;;25.70;58.50;;;;;;4933187;29;20043;-50
2022/08/26 08:44:13;;;;;;;8.88;2.58;;;25.70;58.60;;;;;;4934397;29;20044;-53
2022/08/26 08:46:41;;;;;;;5.50;1.65;;;25.70;58.70;;;;;;4929332;29;20063;-53
2022/08/26 08:49:09;;;;;;;4.75;2.00;;;25.70;58.90;;;;;;4933446;29;20047;-50
2022/08/26 08:51:44;;;;;;;4.47;1.77;;;25.70;58.90;;;;;;4933934;29;20051;-54
2022/08/26 08:54:12;;;;;;;3.58;1.88;;;25.70;58.90;;;;;;4933350;29;20079;-54
2022/08/26 08:57:10;;;;;;;4.05;1.92;;;25.70;58.70;;;;;;4934083;29;20052;-53
2022/08/26 08:59:46;;;;;;;3.78;1.65;;;25.80;58.90;;;;;;4934979;29;20040;-55
2022/08/26 09:02:27;;;;;;;5.10;2.47;;;25.80;59.00;;;;;;4933005;29;20504;-53
2022/08/26 09:05:04;;;;;;;5.25;2.10;;;25.80;58.80;;;;;;4934499;29;20048;-55
2022/08/26 09:07:45;;;;;;;5.93;1.65;;;25.80;58.60;;;;;;4934547;29;20039;-51
2022/08/26 09:10:24;;;;;;;3.25;1.90;;;25.80;58.70;;;;;;4933555;29;20135;-56
2022/08/26 09:12:53;;;;;;;2.15;1.33;;;25.90;58.70;;;;;;4949723;29;20579;-54
2022/08/26 09:15:35;;;;;;;5.10;2.03;;;25.90;58.50;;;;;;4933798;29;20048;-51
2022/08/26 09:18:05;;;;;;;5.32;1.25;;;25.90;58.50;;;;;;4936394;28;20083;-54
2022/08/26 09:20:48;;;;;;;7.43;2.03;;;26.00;58.60;;;;;;4931541;29;20054;-52
2022/08/26 09:23:15;;;;;;;5.68;1.88;;;26.00;58.30;;;;;;4932506;29;20047;-56
2022/08/26 09:25:59;;;;;;;4.63;2.03;;;26.00;58.20;;;;;;4933080;29;20529;-53
2022/08/26 09:28:27;;;;;;;;;;;26.00;58.10;;;;;;4934912;29;20127;-53
2022/08/26 09:31:15;;;;;;;5.20;1.73;;;26.10;57.70;;;;;;4933015;29;20089;-54
2022/08/26 09:33:42;;;;;;;4.80;2.70;;;26.00;57.90;;;;;;4933329;29;20062;-51
2022/08/26 09:36:22;;;;;;;3.42;1.63;;;26.00;58.00;;;;;;4933591;29;20043;-51
2022/08/26 09:38:52;;;;;;;5.00;1.67;;;26.00;58.10;;;;;;4933490;29;20047;-51
2022/08/26 09:41:24;;;;;;;3.88;1.63;;;26.00;57.90;;;;;;4929832;29;20287;-53
2022/08/26 09:44:17;;;;;;;5.00;2.00;;;26.00;58.00;;;;;;4934410;29;20044;-52
2022/08/26 09:46:57;;;;;;;4.80;1.80;;;26.00;57.90;;;;;;4914865;29;20100;-55
2022/08/26 09:49:25;;;;;;;4.20;1.42;;;25.90;58.00;;;;;;4932932;29;20629;-51
2022/08/26 09:52:26;;;;;;;6.20;1.70;;;25.90;57.90;;;;;;4932413;29;20093;-50
2022/08/26 09:55:10;;;;;;;4.85;1.77;;;25.90;58.00;;;;;;4930496;29;20046;-51
2022/08/26 09:57:48;;;;;;;5.28;2.03;;;25.90;58.10;;;;;;4929542;29;20408;-54
2022/08/26 10:00:35;;;;;;;3.25;1.92;;;25.90;58.10;;;;;;4931198;29;20044;-51
2022/08/26 10:03:21;;;;;;;5.50;1.75;;;26.00;58.10;;;;;;4933805;29;20044;-55
2022/08/26 10:06:05;;;;;;;3.78;1.92;;;25.90;58.10;;;;;;4931624;29;20429;-54
2022/08/26 10:08:42;;;;;;;2.50;1.73;;;25.90;58.10;;;;;;4925878;29;20106;-58
2022/08/26 10:11:41;;;;;;;4.28;2.25;;;26.00;58.20;;;;;;4931545;29;20050;-57
2022/08/26 10:14:35;;;;;;;4.97;1.92;;;26.00;58.10;;;;;;4931242;29;20047;-56
2022/08/26 10:17:25;;;;;;;4.68;2.03;;;26.00;58.10;;;;;;4928685;29;20073;-57
2022/08/26 10:19:58;;;;;;;3.13;1.50;;;26.10;58.10;;;;;;4928595;29;20098;-58
2022/08/26 10:22:44;;;;;;;3.58;1.30;;;26.10;58.00;;;;;;4924570;29;20452;-56
2022/08/26 10:25:19;;;;;;;9.55;2.08;;;26.10;57.80;;;;;;4931932;29;20063;-57
2022/08/26 10:28:12;;;;;;;5.05;1.92;;;26.10;57.80;;;;;;4930777;29;20063;-57
2022/08/26 10:30:46;;;;;;;6.72;3.20;;;26.10;57.60;;;;;;4924150;29;20059;-57
2022/08/26 10:33:14;;;;;;;8.57;2.40;;;26.10;57.70;;;;;;4931658;29;20051;-57
2022/08/26 10:36:00;;;;;;;4.72;2.45;;;26.10;57.70;;;;;;4926157;29;20050;-57
2022/08/26 10:38:33;;;;;;;3.30;2.05;;;26.10;57.50;;;;;;4926535;29;20059;-57
2022/08/26 10:41:19;;;;;;;5.15;2.10;;;26.10;57.50;;;;;;4930719;29;20044;-58
2022/08/26 10:44:00;;;;;;;5.22;1.95;;;26.10;57.20;;;;;;4926920;29;20118;-57
2022/08/26 10:46:41;;;;;;;3.70;1.85;;;26.10;57.10;;;;;;4929542;29;20055;-57
2022/08/26 10:49:13;;;;;;;2.33;1.83;;;26.10;57.40;;;;;;4930399;29;20051;-56
2022/08/26 10:51:53;;;;;;;3.10;1.85;;;26.10;57.30;;;;;;4930066;29;20054;-58
2022/08/26 10:54:46;;;;;;;4.28;2.33;;;26.10;57.30;;;;;;4923579;29;20568;-58
2022/08/26 10:57:26;;;;;;;4.55;1.77;;;26.20;57.20;;;;;;4928399;29;20138;-56
2022/08/26 11:03:23;;;;;;;2.33;1.80;;;26.30;56.90;;;;;;4927646;29;20047;-57
2022/08/26 11:06:18;;;;;;;4.75;1.80;;;26.40;56.70;;;;;;4928322;29;20111;-58
2022/08/26 11:08:46;;;;;;;5.38;2.05;;;26.40;56.50;;;;;;4929430;29;20039;-57
2022/08/26 11:11:38;;;;;;;4.32;1.63;;;26.40;56.60;;;;;;4930208;29;20115;-57
2022/08/26 11:14:08;;;;;;;3.83;1.65;;;26.40;56.40;;;;;;4932755;29;20512;-57
2022/08/26 11:16:41;;;;;;;2.25;1.98;;;26.40;56.60;;;;;;4933109;28;20568;-57
2022/08/26 11:19:30;;;;;;;6.43;2.58;;;26.50;56.50;;;;;;4934697;29;20374;-58
2022/08/26 11:22:36;;;;;;;4.32;2.17;;;26.50;56.40;;;;;;4932027;29;20114;-57
2022/08/26 11:25:15;;;;;;;5.00;1.75;;;26.50;56.30;;;;;;4933613;29;20146;-57
2022/08/26 11:27:53;;;;;;;5.20;1.90;;;26.50;56.30;;;;;;4934443;29;20119;-57
2022/08/26 11:30:20;;;;;;;6.32;2.70;;;26.50;56.40;;;;;;4933384;29;20036;-57
2022/08/26 11:32:52;;;;;;;5.55;1.98;;;26.50;56.10;;;;;;4930745;29;20646;-58
2022/08/26 11:35:19;;;;;;;2.85;1.50;;;26.50;55.80;;;;;;4933661;29;20052;-56
2022/08/26 11:38:17;;;;;;;3.47;1.80;;;26.50;55.90;;;;;;4932100;29;21241;-58
2022/08/26 11:40:53;;;;;;;4.65;1.70;;;26.50;55.90;;;;;;4932635;29;20042;-58
2022/08/26 11:43:24;;;;;;;4.93;2.15;;;26.50;55.90;;;;;;4932348;29;20098;-58
2022/08/26 11:46:09;;;;;;;4.15;2.03;;;26.50;55.90;;;;;;4931787;29;20050;-58
2022/08/26 11:48:41;;;;;;;4.30;1.67;;;26.50;55.80;;;;;;4933328;29;20052;-57
2022/08/26 11:51:20;;;;;;;4.40;1.45;;;26.50;55.70;;;;;;4933340;29;20051;-58
2022/08/26 11:53:48;;;;;;;5.72;1.60;;;26.40;55.80;;;;;;4931288;29;20480;-58
2022/08/26 11:56:26;;;;;;;3.95;2.13;;;26.40;55.80;;;;;;4932345;29;20502;-57
2022/08/26 11:58:58;;;;;;;;;;;26.40;55.80;;;;;;4931934;29;20044;-57
2022/08/26 12:01:29;;;;;;;3.45;1.75;;;26.40;55.60;;;;;;4932796;29;20363;-56
2022/08/26 12:03:59;;;;;;;5.07;1.60;;;26.30;55.40;;;;;;4934534;29;20048;-57
2022/08/26 12:06:33;;;;;;;6.30;1.50;;;26.30;55.50;;;;;;4933606;29;20103;-57
2022/08/26 12:09:13;;;;;;;5.32;1.58;;;26.20;55.50;;;;;;4932008;29;20452;-57
2022/08/26 12:11:40;;;;;;;6.20;2.17;;;26.20;55.70;;;;;;4934522;29;20040;-57
2022/08/26 12:14:24;;;;;;;4.25;1.80;;;26.10;55.80;;;;;;4933638;29;20102;-58
2022/08/26 12:16:53;;;;;;;6.13;2.15;;;26.10;55.80;;;;;;4937637;29;20044;-58
2022/08/26 12:19:26;;;;;;;4.28;1.88;;;26.10;56.00;;;;;;4928283;29;20047;-56
2022/08/26 12:22:05;;;;;;;4.15;1.60;;;26.10;56.10;;;;;;4933081;29;20437;-58
2022/08/26 12:24:32;;;;;;;3.85;1.52;;;26.00;56.20;;;;;;4930571;29;20111;-58
2022/08/26 12:27:32;;;;;;;3.78;1.70;;;26.00;56.30;;;;;;4932044;29;20048;-57
2022/08/26 12:30:01;;;;;;;3.88;1.95;;;26.00;56.20;;;;;;4880026;29;1171390;-57
2022/08/26 12:32:30;;;;;;;4.05;2.20;;;26.00;56.50;;;;;;4933764;29;20079;-56
2022/08/26 12:35:00;;;;;;;4.55;2.22;;;26.10;56.60;;;;;;4933815;29;20048;-58
2022/08/26 12:37:33;;;;;;;4.63;2.45;;;26.00;56.40;;;;;;4927227;29;20047;-57
2022/08/26 12:40:39;;;;;;;3.50;2.40;;;26.10;56.50;;;;;;4933970;29;20047;-58
2022/08/26 12:43:08;;;;;;;3.88;1.58;;;26.00;56.50;;;;;;4934068;29;20055;-57
2022/08/26 12:45:40;;;;;;;4.22;2.05;;;26.00;56.60;;;;;;4968682;23;20051;-52
2022/08/26 12:48:12;;;;;;;6.47;1.77;;;26.00;56.60;;;;;;4947503;29;20058;-53
2022/08/26 12:50:46;;;;;;;5.30;1.95;;;26.00;56.60;;;;;;4953279;29;20097;-50
2022/08/26 12:53:21;;;;;;;2.47;1.85;;;26.00;56.60;;;;;;4952962;28;20512;-52
2022/08/26 12:55:58;;;;;;;5.13;1.88;;;26.00;56.60;;;;;;4947553;28;20058;-51
2022/08/26 12:58:33;;;;;;;2.88;2.08;;;25.90;56.50;;;;;;4951506;29;20040;-53
2022/08/26 13:01:02;;;;;;;3.65;1.88;;;25.90;56.40;;;;;;4953507;28;20048;-49
2022/08/26 13:03:44;;;;;;;76.88;10.32;;;25.80;56.40;;;;;;4950604;29;20043;-54
2022/08/26 13:06:21;;;;;;;50.45;7.65;;;25.80;56.60;;;;;;4947007;29;20043;-53
2022/08/26 13:08:58;;;;;;;3.95;1.80;;;25.80;56.80;;;;;;4951917;29;20047;-52
2022/08/26 13:11:33;;;;;;;14.13;3.28;;;25.70;56.90;;;;;;4950541;29;20594;-53
2022/08/26 13:14:12;;;;;;;12.00;2.38;;;25.80;57.40;;;;;;4951132;28;20087;-51
2022/08/26 13:16:50;;;;;;;5.13;2.00;;;25.80;57.50;;;;;;4948519;29;20162;-50
2022/08/26 13:19:20;;;;;;;9.95;1.52;;;25.80;57.60;;;;;;4949376;28;20120;-50
2022/08/26 13:21:56;;;;;;;6.87;1.50;;;25.90;57.50;;;;;;4953752;28;20035;-53